createdAt,value
2017-10-19T00:00:44.350Z,11.40
2017-10-19T00:03:11.782Z,11.40
2017-10-19T00:05:39.992Z,11.30
2017-10-19T00:08:07.438Z,11.20
2017-10-19T00:10:34.934Z,11.20
2017-10-19T00:13:02.533Z,11.20
2017-10-19T00:15:30.822Z,11.10
2017-10-19T00:17:59.410Z,11.10
2017-10-19T00:20:26.958Z,11.10
2017-10-19T00:22:55.240Z,11.10
2017-10-19T00:25:22.746Z,11.10
2017-10-19T00:27:50.227Z,11.10
2017-10-19T00:30:17.723Z,11.10
2017-10-19T00:32:45.966Z,11.20
2017-10-19T00:35:13.723Z,11.10
2017-10-19T00:37:41.346Z,11.20
2017-10-19T00:40:08.831Z,11.10
2017-10-19T00:42:36.438Z,11.10
2017-10-19T00:45:04.838Z,11.10
2017-10-19T00:47:32.343Z,11.10
2017-10-19T00:49:59.828Z,11.10
2017-10-19T00:52:28.102Z,11.10
2017-10-19T00:54:56.379Z,11.10
2017-10-19T00:57:23.882Z,11.00
2017-10-19T00:59:51.406Z,11.00
2017-10-19T01:02:19.663Z,10.90
2017-10-19T01:04:47.155Z,10.80
2017-10-19T01:07:14.703Z,10.80
2017-10-19T01:09:42.219Z,10.80
2017-10-19T01:12:09.812Z,10.70
2017-10-19T01:14:38.098Z,10.60
2017-10-19T01:17:06.393Z,10.60
2017-10-19T01:19:33.875Z,10.50
2017-10-19T01:22:01.392Z,10.60
2017-10-19T01:24:29.643Z,10.70
2017-10-19T01:26:57.223Z,10.60
2017-10-19T01:29:25.498Z,10.60
2017-10-19T01:31:53.743Z,10.60
2017-10-19T01:34:22.002Z,10.60
2017-10-19T01:36:49.492Z,10.50
2017-10-19T01:39:17.780Z,10.50
2017-10-19T01:41:46.038Z,10.50
2017-10-19T01:44:13.526Z,10.50
2017-10-19T01:46:41.790Z,10.50
2017-10-19T01:49:10.097Z,10.50
2017-10-19T01:51:37.524Z,10.40
2017-10-19T01:54:05.029Z,10.40
2017-10-19T01:56:32.584Z,10.40
2017-10-19T01:59:00.014Z,10.40
2017-10-19T02:01:27.470Z,10.30
2017-10-19T02:03:54.957Z,10.30
2017-10-19T02:06:22.408Z,10.30
2017-10-19T02:08:49.846Z,10.30
2017-10-19T02:11:17.273Z,10.30
2017-10-19T02:13:44.717Z,10.30
2017-10-19T02:16:13.656Z,10.30
2017-10-19T02:18:41.097Z,10.30
2017-10-19T02:21:08.601Z,10.40
2017-10-19T02:23:36.041Z,10.40
2017-10-19T02:26:03.526Z,10.40
2017-10-19T02:28:30.955Z,10.40
2017-10-19T02:30:58.414Z,10.40
2017-10-19T02:33:25.842Z,10.40
2017-10-19T02:35:53.650Z,10.30
2017-10-19T02:38:21.114Z,10.30
2017-10-19T02:40:48.552Z,10.20
2017-10-19T02:43:15.997Z,10.20
2017-10-19T02:45:43.460Z,10.10
2017-10-19T02:48:10.889Z,10.10
2017-10-19T02:50:39.090Z,10.00
2017-10-19T02:53:06.569Z,9.90
2017-10-19T02:55:34.021Z,9.90
2017-10-19T02:58:01.464Z,9.90
2017-10-19T03:00:28.904Z,9.90
2017-10-19T03:02:56.327Z,9.90
2017-10-19T03:05:23.769Z,9.90
2017-10-19T03:07:51.209Z,9.90
2017-10-19T03:10:18.638Z,9.80
2017-10-19T03:12:46.089Z,9.90
2017-10-19T03:15:13.516Z,9.90
2017-10-19T03:17:40.960Z,9.80
2017-10-19T03:20:08.417Z,9.80
2017-10-19T03:22:35.840Z,9.80
2017-10-19T03:25:03.317Z,9.80
2017-10-19T03:27:31.638Z,9.80
2017-10-19T03:29:59.850Z,9.70
2017-10-19T03:32:27.277Z,9.70
2017-10-19T03:34:54.872Z,9.70
2017-10-19T03:37:22.310Z,9.70
2017-10-19T03:39:49.736Z,9.60
2017-10-19T03:42:17.250Z,9.60
2017-10-19T03:44:44.677Z,9.60
2017-10-19T03:47:12.117Z,9.60
2017-10-19T03:49:40.317Z,9.60
2017-10-19T03:52:07.806Z,9.60
2017-10-19T03:54:35.257Z,9.70
2017-10-19T03:57:02.688Z,9.70
2017-10-19T03:59:30.125Z,9.80
2017-10-19T04:01:58.352Z,9.70
2017-10-19T04:04:25.911Z,9.70
2017-10-19T04:06:53.353Z,9.80
2017-10-19T04:09:20.857Z,9.80
2017-10-19T04:11:48.280Z,9.80
2017-10-19T04:14:15.715Z,9.80
2017-10-19T04:16:43.165Z,9.70
2017-10-19T04:19:10.650Z,9.70
2017-10-19T04:21:38.098Z,9.70
2017-10-19T04:24:05.530Z,9.60
2017-10-19T04:26:33.727Z,9.60
2017-10-19T04:29:01.183Z,9.60
2017-10-19T04:31:28.629Z,9.60
2017-10-19T04:33:56.078Z,9.60
2017-10-19T04:36:24.271Z,9.60
2017-10-19T04:38:51.702Z,9.60
2017-10-19T04:41:19.139Z,9.70
2017-10-19T04:43:46.664Z,9.70
2017-10-19T04:46:14.101Z,9.70
2017-10-19T04:48:41.582Z,9.70
2017-10-19T04:51:09.013Z,9.70
2017-10-19T04:53:36.433Z,9.70
2017-10-19T04:56:04.709Z,9.60
2017-10-19T04:58:32.944Z,9.70
2017-10-19T05:01:00.374Z,9.60
2017-10-19T05:03:27.809Z,9.70
2017-10-19T05:05:55.233Z,9.70
2017-10-19T05:08:22.769Z,9.80
2017-10-19T05:10:50.191Z,9.90
2017-10-19T05:13:17.629Z,9.90
2017-10-19T05:15:45.842Z,9.90
2017-10-19T05:18:13.330Z,9.90
2017-10-19T05:20:40.769Z,9.90
2017-10-19T05:23:08.220Z,9.90
2017-10-19T05:25:35.685Z,9.90
2017-10-19T05:28:03.122Z,9.80
2017-10-19T05:30:30.556Z,9.80
2017-10-19T05:32:58.767Z,9.80
2017-10-19T05:35:26.209Z,9.70
2017-10-19T05:37:53.701Z,9.70
2017-10-19T05:40:21.148Z,9.70
2017-10-19T05:42:48.586Z,9.70
2017-10-19T05:45:16.417Z,9.70
2017-10-19T05:47:44.759Z,9.70
2017-10-19T05:50:12.205Z,9.70
2017-10-19T05:52:39.655Z,9.70
2017-10-19T05:55:07.113Z,9.80
2017-10-19T05:57:34.533Z,9.70
2017-10-19T06:00:02.744Z,9.80
2017-10-19T06:02:30.520Z,9.80
2017-10-19T06:04:57.958Z,9.80
2017-10-19T06:07:25.384Z,9.80
2017-10-19T06:09:53.595Z,9.70
2017-10-19T06:12:21.889Z,9.70
2017-10-19T06:14:49.334Z,9.70
2017-10-19T06:17:16.801Z,9.70
2017-10-19T06:19:44.246Z,9.70
2017-10-19T06:22:11.718Z,9.70
2017-10-19T06:24:39.481Z,9.70
2017-10-19T06:27:06.941Z,9.70
2017-10-19T06:29:34.380Z,9.60
2017-10-19T06:32:01.821Z,9.60
2017-10-19T06:34:29.317Z,9.70
2017-10-19T06:36:56.753Z,9.70
2017-10-19T06:39:24.189Z,9.70
2017-10-19T06:41:51.629Z,9.80
2017-10-19T06:44:19.837Z,9.80
2017-10-19T06:46:47.264Z,9.70
2017-10-19T06:49:15.469Z,9.80
2017-10-19T06:51:42.894Z,9.80
2017-10-19T06:54:11.101Z,10.00
2017-10-19T06:56:38.533Z,9.90
2017-10-19T06:59:05.990Z,10.00
2017-10-19T07:01:33.423Z,10.10
2017-10-19T07:04:22.803Z,10.80
2017-10-19T07:06:50.236Z,10.70
2017-10-19T07:09:17.677Z,11.30
2017-10-19T07:11:45.255Z,11.70
2017-10-19T07:14:12.739Z,12.10
2017-10-19T07:16:40.173Z,12.30
2017-10-19T07:19:07.618Z,12.40
2017-10-19T07:21:35.061Z,12.40
2017-10-19T07:24:02.540Z,12.40
2017-10-19T07:26:30.325Z,12.50
2017-10-19T07:28:57.770Z,12.70
2017-10-19T07:31:25.247Z,13.10
2017-10-19T07:33:52.697Z,13.50
2017-10-19T07:36:20.165Z,13.90
2017-10-19T07:38:47.622Z,14.30
2017-10-19T07:41:15.055Z,14.60
2017-10-19T07:43:42.496Z,15.00
2017-10-19T07:46:09.933Z,15.20
2017-10-19T07:48:38.134Z,15.60
2017-10-19T07:51:05.606Z,15.60
2017-10-19T07:53:33.038Z,15.90
2017-10-19T07:56:00.522Z,16.00
2017-10-19T07:58:27.980Z,16.20
2017-10-19T08:00:55.426Z,16.40
2017-10-19T08:03:22.853Z,16.80
2017-10-19T08:05:51.049Z,17.10
2017-10-19T08:08:19.083Z,17.00
2017-10-19T08:10:46.515Z,17.30
2017-10-19T08:13:13.957Z,17.40
2017-10-19T08:15:41.417Z,17.50
2017-10-19T08:18:08.965Z,17.80
2017-10-19T08:20:37.140Z,18.10
2017-10-19T08:23:04.613Z,18.50
2017-10-19T08:25:32.045Z,18.80
2017-10-19T08:27:59.475Z,19.00
2017-10-19T08:30:27.681Z,19.80
2017-10-19T08:32:55.113Z,19.80
2017-10-19T08:35:22.569Z,20.20
2017-10-19T08:37:50.072Z,20.50
2017-10-19T08:40:17.505Z,20.80
2017-10-19T08:42:44.937Z,21.10
2017-10-19T08:45:13.145Z,21.50
2017-10-19T08:47:40.609Z,21.50
2017-10-19T08:50:08.057Z,21.50
2017-10-19T08:52:35.494Z,21.40
2017-10-19T08:55:07.522Z,21.40
2017-10-19T08:57:35.654Z,21.40
2017-10-19T09:00:03.082Z,21.60
2017-10-19T09:02:31.351Z,21.60
2017-10-19T09:04:59.569Z,21.80
2017-10-19T09:07:27.043Z,21.80
2017-10-19T09:09:54.497Z,22.10
2017-10-19T09:12:21.924Z,22.50
2017-10-19T09:14:49.368Z,23.00
2017-10-19T09:17:17.694Z,23.30
2017-10-19T09:19:45.130Z,24.00
2017-10-19T09:22:12.565Z,24.30
2017-10-19T09:24:40.333Z,24.50
2017-10-19T09:27:07.816Z,24.80
2017-10-19T09:29:35.368Z,25.10
2017-10-19T09:32:02.833Z,25.60
2017-10-19T09:34:30.260Z,26.00
2017-10-19T09:36:57.700Z,26.10
2017-10-19T09:39:26.578Z,26.10
2017-10-19T09:41:55.774Z,26.40
2017-10-19T09:44:23.216Z,26.40
2017-10-19T09:46:50.649Z,26.90
2017-10-19T09:49:18.109Z,27.10
2017-10-19T09:51:45.555Z,27.50
2017-10-19T09:54:13.330Z,27.70
2017-10-19T09:56:40.795Z,27.50
2017-10-19T09:59:08.236Z,27.20
2017-10-19T10:01:35.693Z,26.60
2017-10-19T10:04:03.105Z,26.20
2017-10-19T10:06:31.324Z,26.60
2017-10-19T10:08:58.761Z,26.60
2017-10-19T10:11:26.205Z,27.00
2017-10-19T10:13:54.451Z,27.60
2017-10-19T10:16:22.137Z,27.50
2017-10-19T10:18:50.332Z,27.80
2017-10-19T10:21:17.817Z,27.80
2017-10-19T10:23:45.388Z,28.10
2017-10-19T10:26:12.831Z,28.30
2017-10-19T10:28:40.276Z,28.60
2017-10-19T10:31:07.709Z,29.00
2017-10-19T10:33:36.446Z,29.40
2017-10-19T10:36:03.906Z,29.40
2017-10-19T10:38:31.364Z,29.70
2017-10-19T10:40:58.797Z,29.80
2017-10-19T10:43:26.271Z,29.40
2017-10-19T10:45:54.275Z,29.20
2017-10-19T10:48:22.465Z,29.40
2017-10-19T10:50:50.925Z,29.70
2017-10-19T10:55:47.397Z,29.70
2017-10-19T10:58:15.597Z,27.70
2017-10-19T11:00:43.575Z,27.60
2017-10-19T11:03:11.321Z,26.90
2017-10-19T11:05:38.757Z,26.70
2017-10-19T11:08:06.989Z,26.00
2017-10-19T11:10:34.454Z,25.90
2017-10-19T11:13:02.149Z,25.50
2017-10-19T11:15:30.476Z,25.70
2017-10-19T11:17:58.005Z,25.60
2017-10-19T11:20:26.209Z,26.00
2017-10-19T11:22:53.645Z,26.00
2017-10-19T11:25:21.357Z,26.30
2017-10-19T11:27:48.902Z,27.00
2017-10-19T11:30:16.330Z,27.90
2017-10-19T11:32:43.853Z,28.50
2017-10-19T11:35:11.272Z,29.20
2017-10-19T11:37:38.709Z,29.90
2017-10-19T11:40:06.158Z,30.30
2017-10-19T11:42:33.857Z,30.30
2017-10-19T11:45:01.298Z,30.40
2017-10-19T11:47:28.860Z,30.60
2017-10-19T11:49:56.553Z,30.90
2017-10-19T11:52:23.994Z,30.70
2017-10-19T11:54:51.678Z,30.70
2017-10-19T11:57:19.141Z,30.60
2017-10-19T11:59:48.198Z,31.20
2017-10-19T12:02:15.629Z,31.10
2017-10-19T12:04:43.057Z,31.20
2017-10-19T12:07:11.260Z,31.50
2017-10-19T12:09:38.695Z,31.40
2017-10-19T12:12:07.157Z,31.80
2017-10-19T12:14:34.686Z,31.70
2017-10-19T12:17:02.136Z,30.70
2017-10-19T12:19:29.589Z,29.30
2017-10-19T12:21:57.050Z,28.50
2017-10-19T12:24:24.821Z,28.80
2017-10-19T12:26:52.284Z,29.30
2017-10-19T12:29:19.727Z,30.00
2017-10-19T12:31:47.165Z,30.60
2017-10-19T12:34:14.633Z,30.90
2017-10-19T12:36:42.098Z,30.30
2017-10-19T12:39:09.569Z,29.80
2017-10-19T12:41:37.010Z,29.30
2017-10-19T12:44:04.494Z,29.20
2017-10-19T12:46:31.941Z,29.30
2017-10-19T12:48:59.365Z,29.60
2017-10-19T12:51:26.825Z,30.20
2017-10-19T12:53:54.314Z,30.60
2017-10-19T12:56:21.750Z,30.70
2017-10-19T12:58:49.196Z,30.80
2017-10-19T13:01:16.642Z,31.10
2017-10-19T13:03:44.857Z,31.60
2017-10-19T13:06:12.299Z,31.50
2017-10-19T13:08:39.744Z,31.20
2017-10-19T13:11:07.181Z,31.40
2017-10-19T13:13:35.405Z,32.20
2017-10-19T13:16:02.961Z,32.20
2017-10-19T13:18:30.419Z,32.10
2017-10-19T13:20:57.998Z,31.60
2017-10-19T13:23:25.454Z,31.50
2017-10-19T13:25:53.002Z,31.40
2017-10-19T13:28:20.459Z,31.30
2017-10-19T13:30:47.909Z,31.00
2017-10-19T13:33:15.357Z,30.70
2017-10-19T13:35:42.799Z,30.90
2017-10-19T13:38:10.236Z,31.10
2017-10-19T13:40:38.435Z,30.80
2017-10-19T13:43:05.873Z,30.70
2017-10-19T13:45:34.069Z,30.30
2017-10-19T13:48:01.522Z,30.20
2017-10-19T13:50:28.953Z,30.00
2017-10-19T13:52:57.192Z,29.80
2017-10-19T13:55:24.599Z,29.80
2017-10-19T13:57:52.039Z,30.20
2017-10-19T14:00:20.242Z,31.00
2017-10-19T14:02:47.672Z,31.00
2017-10-19T14:05:15.117Z,31.00
2017-10-19T14:07:42.547Z,30.90
2017-10-19T14:10:09.997Z,30.90
2017-10-19T14:12:38.201Z,30.50
2017-10-19T14:15:05.638Z,30.50
2017-10-19T14:17:33.082Z,30.30
2017-10-19T14:20:00.536Z,30.40
2017-10-19T14:22:27.988Z,30.40
2017-10-19T14:24:55.451Z,30.10
2017-10-19T14:27:23.316Z,29.90
2017-10-19T14:29:50.734Z,29.80
2017-10-19T14:32:18.943Z,29.70
2017-10-19T14:34:46.403Z,29.60
2017-10-19T14:37:13.838Z,29.30
2017-10-19T14:39:41.291Z,29.10
2017-10-19T14:42:09.041Z,28.70
2017-10-19T14:44:37.256Z,28.20
2017-10-19T14:47:04.684Z,28.20
2017-10-19T14:49:32.884Z,28.00
2017-10-19T14:52:00.331Z,28.00
2017-10-19T14:54:27.770Z,28.10
2017-10-19T14:56:55.989Z,27.80
2017-10-19T14:59:23.422Z,27.70
2017-10-19T15:01:50.874Z,27.20
2017-10-19T15:04:18.307Z,26.40
2017-10-19T15:06:46.502Z,25.30
2017-10-19T15:09:13.938Z,25.20
2017-10-19T15:11:42.178Z,24.70
2017-10-19T15:14:09.617Z,24.60
2017-10-19T15:16:37.170Z,24.30
2017-10-19T15:19:04.597Z,23.90
2017-10-19T15:21:32.785Z,23.30
2017-10-19T15:24:00.238Z,23.20
2017-10-19T15:26:28.437Z,22.90
2017-10-19T15:28:55.879Z,22.90
2017-10-19T15:31:23.325Z,22.80
2017-10-19T15:33:50.762Z,22.70
2017-10-19T15:36:18.208Z,22.60
2017-10-19T15:38:45.637Z,22.50
2017-10-19T15:41:13.077Z,22.40
2017-10-19T15:43:40.509Z,22.30
2017-10-19T15:46:08.717Z,22.20
2017-10-19T15:48:36.153Z,22.10
2017-10-19T15:51:13.332Z,22.10
2017-10-19T15:53:40.784Z,22.10
2017-10-19T15:56:08.979Z,21.90
2017-10-19T15:58:36.473Z,21.80
2017-10-19T16:01:03.917Z,21.80
2017-10-19T16:03:31.361Z,21.60
2017-10-19T16:05:58.798Z,21.50
2017-10-19T16:08:26.273Z,21.40
2017-10-19T16:10:54.037Z,21.30
2017-10-19T16:13:21.517Z,21.20
2017-10-19T16:15:48.969Z,21.20
2017-10-19T16:18:16.430Z,21.10
2017-10-19T16:20:43.892Z,21.00
2017-10-19T16:23:13.546Z,21.00
2017-10-19T16:25:43.840Z,20.80
2017-10-19T16:28:12.172Z,20.70
2017-10-19T16:30:43.179Z,20.60
2017-10-19T16:33:13.398Z,20.60
2017-10-19T16:35:43.245Z,20.60
2017-10-19T16:38:11.446Z,20.50
2017-10-19T16:40:38.875Z,20.50
2017-10-19T16:43:06.325Z,20.50
2017-10-19T16:45:33.768Z,20.40
2017-10-19T16:48:01.982Z,20.20
2017-10-19T16:50:29.433Z,20.10
2017-10-19T16:52:56.861Z,20.00
2017-10-19T16:55:25.189Z,20.00
2017-10-19T16:57:52.655Z,19.90
2017-10-19T17:00:20.095Z,19.90
2017-10-19T17:02:47.521Z,19.80
2017-10-19T17:05:14.950Z,19.80
2017-10-19T17:07:43.169Z,19.80
2017-10-19T17:10:10.626Z,19.70
2017-10-19T17:12:38.074Z,19.80
2017-10-19T17:15:05.518Z,19.70
2017-10-19T17:17:32.999Z,19.70
2017-10-19T17:20:00.426Z,19.70
2017-10-19T17:22:28.616Z,19.70
2017-10-19T17:24:56.085Z,19.60
2017-10-19T17:27:23.541Z,19.60
2017-10-19T17:29:50.968Z,19.60
2017-10-19T17:32:19.184Z,19.60
2017-10-19T17:34:46.619Z,19.50
2017-10-19T17:37:14.065Z,19.50
2017-10-19T17:39:42.294Z,19.50
2017-10-19T17:42:09.742Z,19.40
2017-10-19T17:44:37.193Z,19.50
2017-10-19T17:47:04.638Z,19.40
2017-10-19T17:49:32.067Z,19.40
2017-10-19T17:52:00.270Z,19.40
2017-10-19T17:54:27.735Z,19.30
2017-10-19T17:56:55.149Z,19.40
2017-10-19T17:59:23.364Z,19.40
2017-10-19T18:01:50.818Z,19.30
2017-10-19T18:04:18.250Z,19.40
2017-10-19T18:06:46.457Z,19.40
2017-10-19T18:09:13.908Z,19.30
2017-10-19T18:11:41.340Z,19.40
2017-10-19T18:14:08.784Z,19.40
2017-10-19T18:16:37.361Z,19.30
2017-10-19T18:19:04.866Z,19.30
2017-10-19T18:21:32.289Z,19.30
2017-10-19T18:24:00.492Z,19.30
2017-10-19T18:26:27.956Z,19.20
2017-10-19T18:28:55.385Z,19.20
2017-10-19T18:31:22.825Z,19.30
2017-10-19T18:33:51.030Z,19.10
2017-10-19T18:36:18.487Z,19.00
2017-10-19T18:38:45.932Z,19.00
2017-10-19T18:41:14.130Z,18.80
2017-10-19T18:43:41.574Z,18.70
2017-10-19T18:46:09.005Z,18.60
2017-10-19T18:48:36.461Z,18.60
2017-10-19T18:51:03.885Z,18.50
2017-10-19T18:53:31.324Z,18.50
2017-10-19T18:55:58.769Z,18.40
2017-10-19T18:58:26.217Z,18.30
2017-10-19T19:00:53.670Z,18.30
2017-10-19T19:03:21.857Z,18.20
2017-10-19T19:05:49.422Z,18.20
2017-10-19T19:08:16.865Z,18.30
2017-10-19T19:10:44.309Z,18.20
2017-10-19T19:13:11.778Z,18.20
2017-10-19T19:15:39.211Z,18.10
2017-10-19T19:18:07.410Z,18.00
2017-10-19T19:20:34.857Z,18.00
2017-10-19T19:23:03.054Z,17.80
2017-10-19T19:25:30.518Z,17.70
2017-10-19T19:27:57.950Z,17.70
2017-10-19T19:30:25.405Z,17.60
2017-10-19T19:32:53.600Z,17.40
2017-10-19T19:35:21.037Z,17.40
2017-10-19T19:37:49.254Z,17.20
2017-10-19T19:40:16.689Z,17.20
2017-10-19T19:42:44.257Z,17.20
2017-10-19T19:45:11.673Z,17.10
2017-10-19T19:47:40.205Z,16.90
2017-10-19T19:50:07.641Z,16.90
2017-10-19T19:52:35.069Z,16.90
2017-10-19T19:55:03.288Z,16.80
2017-10-19T19:57:30.765Z,16.70
2017-10-19T19:59:58.212Z,16.70
2017-10-19T20:02:25.661Z,16.60
2017-10-19T20:04:53.171Z,16.60
2017-10-19T20:07:21.416Z,16.50
2017-10-19T20:09:48.849Z,16.40
2017-10-19T20:12:16.294Z,16.40
2017-10-19T20:14:43.726Z,16.40
2017-10-19T20:17:11.923Z,16.30
2017-10-19T20:19:39.371Z,16.30
2017-10-19T20:22:07.589Z,16.30
2017-10-19T20:24:35.044Z,16.20
2017-10-19T20:27:02.505Z,16.20
2017-10-19T20:29:29.960Z,16.20
2017-10-19T20:31:57.401Z,16.10
2017-10-19T20:34:24.857Z,16.00
2017-10-19T20:36:52.320Z,16.00
2017-10-19T20:39:19.799Z,15.90
2017-10-19T20:41:47.233Z,15.90
2017-10-19T20:44:14.718Z,15.90
2017-10-19T20:46:42.166Z,15.90
2017-10-19T20:49:09.602Z,15.90
2017-10-19T20:51:37.159Z,15.90
2017-10-19T20:54:04.573Z,15.80
2017-10-19T20:56:32.785Z,15.80
2017-10-19T20:59:00.252Z,15.70
2017-10-19T21:01:27.689Z,15.80
2017-10-19T21:03:55.177Z,15.80
2017-10-19T21:06:22.669Z,15.70
2017-10-19T21:08:50.125Z,15.70
2017-10-19T21:11:17.554Z,15.70
2017-10-19T21:13:44.989Z,15.70
2017-10-19T21:16:12.428Z,15.60
2017-10-19T21:18:39.925Z,15.60
2017-10-19T21:21:07.570Z,15.60
2017-10-19T21:23:35.045Z,15.60
2017-10-19T21:26:02.813Z,15.50
2017-10-19T21:28:30.278Z,15.40
2017-10-19T21:30:57.713Z,15.30
2017-10-19T21:33:25.173Z,15.20
2017-10-19T21:35:52.658Z,15.10
2017-10-19T21:38:20.098Z,15.00
2017-10-19T21:40:47.540Z,15.00
2017-10-19T21:43:15.015Z,15.00
2017-10-19T21:45:42.461Z,14.90
2017-10-19T21:48:09.907Z,15.00
2017-10-19T21:50:37.342Z,14.90
2017-10-19T21:53:04.854Z,14.90
2017-10-19T21:55:32.402Z,14.90
2017-10-19T21:57:59.844Z,14.90
2017-10-19T22:00:27.282Z,14.80
2017-10-19T22:02:54.714Z,14.80
2017-10-19T22:05:22.184Z,14.70
2017-10-19T22:07:49.686Z,14.60
2017-10-19T22:10:17.163Z,14.50
2017-10-19T22:12:44.605Z,14.50
2017-10-19T22:15:12.057Z,14.40
2017-10-19T22:17:39.629Z,14.40
2017-10-19T22:20:07.069Z,14.40
2017-10-19T22:22:34.517Z,14.40
2017-10-19T22:25:01.957Z,14.30
2017-10-19T22:27:29.396Z,14.20
2017-10-19T22:29:56.829Z,14.20
2017-10-19T22:32:24.266Z,14.10
2017-10-19T22:34:51.828Z,14.10
2017-10-19T22:37:19.265Z,14.00
2017-10-19T22:39:46.699Z,14.00
2017-10-19T22:42:14.205Z,14.00
2017-10-19T22:44:41.642Z,14.00
2017-10-19T22:47:09.082Z,14.00
2017-10-19T22:49:36.503Z,14.00
2017-10-19T22:52:03.948Z,14.00
2017-10-19T22:54:32.893Z,13.90
2017-10-19T22:57:00.329Z,13.90
2017-10-19T22:59:28.648Z,13.90
2017-10-19T23:01:56.118Z,13.90
2017-10-19T23:04:24.269Z,13.90
2017-10-19T23:06:51.707Z,13.90
2017-10-19T23:09:19.145Z,13.90
2017-10-19T23:11:47.346Z,13.80
2017-10-19T23:14:14.783Z,13.80
2017-10-19T23:16:42.997Z,13.80
2017-10-19T23:19:10.457Z,13.70
2017-10-19T23:21:37.901Z,13.80
2017-10-19T23:24:05.342Z,13.80
2017-10-19T23:26:32.834Z,13.80
2017-10-19T23:29:00.261Z,13.80
2017-10-19T23:31:27.750Z,13.80
2017-10-19T23:33:55.205Z,13.80
2017-10-19T23:36:22.643Z,13.80
2017-10-19T23:38:50.089Z,13.80
2017-10-19T23:41:17.524Z,13.80
2017-10-19T23:43:45.757Z,13.80
2017-10-19T23:46:13.211Z,13.70
2017-10-19T23:48:40.665Z,13.80
2017-10-19T23:51:08.225Z,13.80
2017-10-19T23:53:35.769Z,13.80
2017-10-19T23:56:03.188Z,13.90
2017-10-19T23:58:31.397Z,13.80
